createdAt,value
2023-02-06T00:01:55.705Z,1.05
2023-02-06T00:04:22.128Z,0.98
2023-02-06T00:06:49.003Z,0.93
2023-02-06T00:09:15.533Z,0.94
2023-02-06T00:11:42.060Z,0.93
2023-02-06T00:14:08.674Z,1.01
2023-02-06T00:16:35.493Z,1.14
2023-02-06T00:19:03.130Z,1.17
2023-02-06T00:21:30.250Z,1.21
2023-02-06T00:23:59.108Z,1.20
2023-02-06T00:26:26.114Z,1.19
2023-02-06T00:28:52.644Z,1.24
2023-02-06T00:31:19.272Z,1.38
2023-02-06T00:33:45.796Z,1.39
2023-02-06T00:36:12.582Z,1.34
2023-02-06T00:38:39.087Z,1.39
2023-02-06T00:41:05.828Z,1.37
2023-02-06T00:43:32.467Z,1.36
2023-02-06T00:45:58.878Z,1.38
2023-02-06T00:48:25.721Z,1.36
2023-02-06T00:50:53.680Z,1.48
2023-02-06T00:53:20.643Z,1.51
2023-02-06T00:55:47.540Z,1.54
2023-02-06T00:58:13.990Z,1.62
2023-02-06T01:00:40.419Z,1.61
2023-02-06T01:03:07.209Z,1.57
2023-02-06T01:05:33.773Z,1.59
2023-02-06T01:08:00.950Z,1.57
2023-02-06T01:10:29.068Z,1.49
2023-02-06T01:12:55.487Z,1.46
2023-02-06T01:15:22.028Z,1.49
2023-02-06T01:17:48.897Z,1.49
2023-02-06T01:20:15.432Z,1.58
2023-02-06T01:22:42.007Z,1.53
2023-02-06T01:25:08.805Z,1.59
2023-02-06T01:27:37.271Z,1.52
2023-02-06T01:30:05.795Z,1.60
2023-02-06T01:32:32.261Z,1.64
2023-02-06T01:34:58.675Z,1.59
2023-02-06T01:37:25.310Z,1.59
2023-02-06T01:39:51.869Z,1.52
2023-02-06T01:42:18.571Z,1.48
2023-02-06T01:44:45.005Z,1.50
2023-02-06T01:47:11.455Z,1.49
2023-02-06T01:49:50.892Z,1.54
2023-02-06T01:52:24.336Z,1.56
2023-02-06T01:54:58.148Z,1.48
2023-02-06T01:57:26.655Z,1.51
2023-02-06T01:59:59.111Z,1.46
2023-02-06T02:02:28.169Z,1.52
2023-02-06T02:04:56.815Z,1.55
2023-02-06T02:07:27.226Z,1.60
2023-02-06T02:09:53.706Z,1.58
2023-02-06T02:12:21.542Z,1.69
2023-02-06T02:14:50.362Z,1.73
2023-02-06T02:17:32.904Z,1.80
2023-02-06T02:20:27.194Z,1.76
2023-02-06T02:23:18.700Z,1.61
2023-02-06T02:25:54.257Z,1.65
2023-02-06T02:28:55.933Z,1.52
2023-02-06T02:31:45.479Z,1.72
2023-02-06T02:34:44.998Z,1.69
2023-02-06T02:37:20.208Z,1.77
2023-02-06T02:40:08.227Z,1.80
2023-02-06T02:42:48.711Z,1.69
2023-02-06T02:45:28.634Z,1.84
2023-02-06T02:48:15.114Z,1.87
2023-02-06T02:50:42.858Z,1.93
2023-02-06T02:53:09.674Z,1.84
2023-02-06T02:55:36.350Z,1.89
2023-02-06T02:58:08.432Z,1.88
2023-02-06T03:00:40.019Z,1.89
2023-02-06T03:03:08.923Z,1.85
2023-02-06T03:05:42.495Z,1.87
2023-02-06T03:08:22.103Z,1.81
2023-02-06T03:11:02.665Z,1.73
2023-02-06T03:13:38.145Z,1.59
2023-02-06T03:16:43.012Z,1.78
2023-02-06T03:19:22.925Z,1.75
2023-02-06T03:21:49.957Z,1.75
2023-02-06T03:24:33.255Z,1.67
2023-02-06T03:27:03.567Z,1.65
2023-02-06T03:29:34.060Z,1.77
2023-02-06T03:32:04.393Z,1.88
2023-02-06T03:34:44.581Z,1.74
2023-02-06T03:37:11.780Z,1.82
2023-02-06T03:39:39.468Z,1.88
2023-02-06T03:42:06.969Z,1.77
2023-02-06T03:44:39.381Z,1.75
2023-02-06T03:47:08.123Z,1.88
2023-02-06T03:49:37.925Z,1.94
2023-02-06T03:52:15.855Z,1.90
2023-02-06T03:54:49.045Z,1.97
2023-02-06T03:57:19.368Z,1.85
2023-02-06T03:59:47.079Z,1.95
2023-02-06T04:02:15.159Z,1.95
2023-02-06T04:04:44.466Z,2.04
2023-02-06T04:07:19.829Z,2.00
2023-02-06T04:09:46.288Z,1.95
2023-02-06T04:12:12.749Z,2.00
2023-02-06T04:14:39.956Z,1.88
2023-02-06T04:17:07.125Z,1.96
2023-02-06T04:19:34.010Z,1.98
2023-02-06T04:22:00.981Z,1.95
2023-02-06T04:24:29.272Z,1.90
2023-02-06T04:26:57.168Z,1.75
2023-02-06T04:29:23.653Z,1.93
2023-02-06T04:31:50.100Z,2.01
2023-02-06T04:34:16.931Z,2.07
2023-02-06T04:36:44.165Z,2.04
2023-02-06T04:39:10.985Z,2.01
2023-02-06T04:41:37.458Z,1.97
2023-02-06T04:44:04.248Z,2.02
2023-02-06T04:46:30.726Z,1.92
2023-02-06T04:48:57.147Z,2.03
2023-02-06T04:51:23.591Z,2.03
2023-02-06T04:53:49.997Z,2.03
2023-02-06T04:56:16.476Z,2.07
2023-02-06T04:58:43.173Z,1.95
2023-02-06T05:01:09.883Z,2.20
2023-02-06T05:03:36.554Z,2.01
2023-02-06T05:06:04.398Z,1.98
2023-02-06T05:08:31.401Z,2.03
2023-02-06T05:10:57.827Z,2.14
2023-02-06T05:13:24.293Z,2.10
2023-02-06T05:15:52.099Z,2.15
2023-02-06T05:18:18.682Z,2.06
2023-02-06T05:20:45.536Z,2.15
2023-02-06T05:23:12.064Z,2.03
2023-02-06T05:25:39.193Z,2.11
2023-02-06T05:28:07.414Z,2.21
2023-02-06T05:30:35.071Z,2.14
2023-02-06T05:33:01.950Z,2.06
2023-02-06T05:35:29.445Z,2.11
2023-02-06T05:37:56.982Z,2.16
2023-02-06T05:40:23.514Z,2.07
2023-02-06T05:42:50.208Z,2.05
2023-02-06T05:45:16.956Z,2.15
2023-02-06T05:47:43.392Z,2.17
2023-02-06T05:50:09.912Z,2.18
2023-02-06T05:52:36.575Z,2.19
2023-02-06T05:55:03.149Z,2.22
2023-02-06T05:57:29.637Z,2.18
2023-02-06T05:59:56.068Z,2.15
2023-02-06T06:02:22.514Z,2.17
2023-02-06T06:04:48.948Z,2.22
2023-02-06T06:07:16.322Z,2.16
2023-02-06T06:09:43.132Z,2.19
2023-02-06T06:12:09.596Z,2.17
2023-02-06T06:14:36.013Z,2.18
2023-02-06T06:17:02.671Z,2.16
2023-02-06T06:19:29.178Z,2.20
2023-02-06T06:21:57.892Z,2.14
2023-02-06T06:24:26.422Z,2.20
2023-02-06T06:26:53.005Z,2.20
2023-02-06T06:29:19.574Z,2.19
2023-02-06T06:31:46.153Z,2.18
2023-02-06T06:34:12.819Z,2.18
2023-02-06T06:36:39.276Z,2.19
2023-02-06T06:39:05.686Z,2.22
2023-02-06T06:41:32.149Z,2.11
2023-02-06T06:43:58.905Z,2.09
2023-02-06T06:46:25.598Z,2.24
2023-02-06T06:48:52.223Z,2.22
2023-02-06T06:51:18.639Z,2.11
2023-02-06T06:53:45.096Z,2.09
2023-02-06T06:56:14.457Z,2.12
2023-02-06T06:58:41.819Z,2.13
2023-02-06T07:01:09.451Z,2.05
2023-02-06T07:03:36.694Z,2.06
2023-02-06T07:06:03.333Z,2.13
2023-02-06T07:08:30.109Z,2.11
2023-02-06T07:10:58.012Z,2.03
2023-02-06T07:13:24.446Z,1.98
2023-02-06T07:15:50.826Z,2.04
2023-02-06T07:18:17.312Z,2.11
2023-02-06T07:20:43.757Z,2.14
2023-02-06T07:23:10.192Z,1.97
2023-02-06T07:25:36.848Z,1.87
2023-02-06T07:28:03.604Z,2.06
2023-02-06T07:30:30.129Z,2.11
2023-02-06T07:32:56.651Z,2.15
2023-02-06T07:35:23.073Z,2.05
2023-02-06T07:37:49.654Z,2.11
2023-02-06T07:40:16.811Z,2.09
2023-02-06T07:42:43.254Z,2.16
2023-02-06T07:45:10.143Z,2.19
2023-02-06T07:47:36.642Z,2.59
2023-02-06T07:50:04.360Z,2.76
2023-02-06T07:52:31.277Z,3.10
2023-02-06T07:54:57.668Z,3.26
2023-02-06T07:57:24.141Z,3.55
2023-02-06T07:59:50.744Z,3.55
2023-02-06T08:02:17.188Z,3.83
2023-02-06T08:04:44.643Z,4.13
2023-02-06T08:07:14.961Z,3.93
2023-02-06T08:09:41.984Z,4.69
2023-02-06T08:12:10.950Z,4.55
2023-02-06T08:14:43.105Z,4.50
2023-02-06T08:17:09.736Z,3.86
2023-02-06T08:19:36.200Z,4.08
2023-02-06T08:22:02.650Z,3.97
2023-02-06T08:24:29.098Z,4.15
2023-02-06T08:26:56.287Z,3.96
2023-02-06T08:29:22.885Z,3.87
2023-02-06T08:31:49.824Z,3.71
2023-02-06T08:34:16.359Z,3.94
2023-02-06T08:36:43.688Z,3.96
2023-02-06T08:39:13.368Z,3.95
2023-02-06T08:41:41.423Z,4.18
2023-02-06T08:44:14.480Z,4.15
2023-02-06T08:46:41.022Z,4.18
2023-02-06T08:49:11.943Z,4.11
2023-02-06T08:51:38.381Z,3.79
2023-02-06T08:54:07.112Z,3.87
2023-02-06T08:56:35.309Z,3.80
2023-02-06T08:59:02.269Z,3.82
2023-02-06T09:01:31.103Z,3.83
2023-02-06T09:04:00.446Z,3.93
2023-02-06T09:06:27.520Z,4.04
2023-02-06T09:08:54.391Z,4.37
2023-02-06T09:11:22.794Z,4.32
2023-02-06T09:13:50.368Z,4.50
2023-02-06T09:16:19.829Z,4.71
2023-02-06T09:18:46.877Z,4.79
2023-02-06T09:21:16.121Z,4.87
2023-02-06T09:23:45.552Z,5.69
2023-02-06T09:26:17.502Z,5.55
2023-02-06T09:28:43.932Z,5.53
2023-02-06T09:31:11.684Z,4.89
2023-02-06T09:33:39.533Z,4.65
2023-02-06T09:36:12.266Z,4.47
2023-02-06T09:38:41.013Z,4.19
2023-02-06T09:41:18.997Z,4.07
2023-02-06T09:43:51.679Z,4.03
2023-02-06T09:46:23.323Z,4.00
2023-02-06T09:48:50.903Z,3.92
2023-02-06T09:51:56.542Z,4.06
2023-02-06T09:54:29.365Z,4.31
2023-02-06T09:57:13.034Z,4.49
2023-02-06T09:59:45.052Z,4.25
2023-02-06T10:02:41.015Z,4.40
2023-02-06T10:05:26.992Z,4.25
2023-02-06T10:08:12.952Z,4.11
2023-02-06T10:10:46.296Z,4.26
2023-02-06T10:13:31.018Z,4.36
2023-02-06T10:16:34.102Z,4.31
2023-02-06T10:19:22.775Z,4.35
2023-02-06T10:21:55.454Z,4.31
2023-02-06T10:25:02.704Z,4.38
2023-02-06T10:27:33.693Z,4.18
2023-02-06T10:30:01.747Z,4.48
2023-02-06T10:33:11.797Z,5.03
2023-02-06T10:35:46.233Z,6.99
2023-02-06T10:39:00.782Z,7.01
2023-02-06T10:41:40.588Z,6.28
2023-02-06T10:44:26.655Z,6.03
2023-02-06T10:46:55.676Z,6.88
2023-02-06T10:49:36.093Z,7.87
2023-02-06T10:52:14.584Z,6.92
2023-02-06T10:54:50.979Z,6.76
2023-02-06T10:57:21.716Z,5.98
2023-02-06T10:59:53.757Z,6.36
2023-02-06T11:02:20.398Z,6.49
2023-02-06T11:04:56.804Z,6.11
2023-02-06T11:07:28.669Z,5.80
2023-02-06T11:09:55.374Z,5.05
2023-02-06T11:12:32.429Z,5.67
2023-02-06T11:15:05.052Z,5.46
2023-02-06T11:17:33.191Z,5.93
2023-02-06T11:20:15.206Z,6.13
2023-02-06T11:22:52.430Z,6.14
2023-02-06T11:25:21.514Z,5.49
2023-02-06T11:27:48.856Z,5.37
2023-02-06T11:30:43.035Z,5.63
2023-02-06T11:33:22.888Z,5.21
2023-02-06T11:35:59.091Z,5.39
2023-02-06T11:38:29.514Z,5.07
2023-02-06T11:41:16.984Z,4.70
2023-02-06T11:43:43.338Z,4.82
2023-02-06T11:46:15.113Z,4.74
2023-02-06T11:48:55.668Z,4.55
2023-02-06T11:51:24.444Z,4.84
2023-02-06T11:54:01.232Z,4.67
2023-02-06T11:56:28.973Z,4.72
2023-02-06T11:59:23.057Z,4.47
2023-02-06T12:01:50.097Z,4.11
2023-02-06T12:04:24.637Z,4.26
2023-02-06T12:09:19.276Z,4.37
2023-02-06T12:14:19.354Z,4.03
2023-02-06T12:16:46.874Z,4.21
2023-02-06T12:19:31.747Z,4.32
2023-02-06T12:22:02.733Z,3.89
2023-02-06T12:24:29.186Z,4.25
2023-02-06T12:26:59.735Z,4.07
2023-02-06T12:29:40.555Z,4.11
2023-02-06T12:32:19.345Z,4.29
2023-02-06T12:34:54.185Z,4.06
2023-02-06T12:37:42.126Z,3.97
2023-02-06T12:40:32.777Z,4.01
2023-02-06T12:43:09.497Z,4.07
2023-02-06T12:49:18.873Z,4.06
2023-02-06T12:52:04.846Z,4.03
2023-02-06T12:54:44.811Z,4.14
2023-02-06T12:57:20.219Z,3.91
2023-02-06T12:59:58.452Z,4.08
2023-02-06T13:02:53.682Z,4.05
2023-02-06T13:05:23.138Z,4.09
2023-02-06T13:07:50.990Z,3.91
2023-02-06T13:10:25.502Z,3.86
2023-02-06T13:12:58.537Z,4.08
2023-02-06T13:15:35.174Z,3.88
2023-02-06T13:18:01.814Z,3.93
2023-02-06T13:20:30.856Z,4.01
2023-02-06T13:23:23.499Z,3.94
2023-02-06T13:25:50.356Z,3.82
2023-02-06T13:28:22.888Z,3.79
2023-02-06T13:30:59.867Z,3.64
2023-02-06T13:33:37.992Z,3.54
2023-02-06T13:36:16.595Z,3.51
2023-02-06T13:38:43.665Z,3.24
2023-02-06T13:41:15.877Z,3.07
2023-02-06T13:43:59.421Z,2.94
2023-02-06T13:46:44.644Z,2.85
2023-02-06T13:49:38.675Z,2.68
2023-02-06T13:52:24.750Z,2.65
2023-02-06T13:55:20.880Z,2.75
2023-02-06T13:58:15.415Z,2.61
2023-02-06T14:00:45.909Z,2.72
2023-02-06T14:03:18.390Z,2.63
2023-02-06T14:05:47.831Z,2.61
2023-02-06T14:08:32.537Z,2.43
2023-02-06T14:11:32.750Z,2.43
2023-02-06T14:14:18.061Z,2.41
2023-02-06T14:17:06.786Z,2.42
2023-02-06T14:19:54.170Z,2.55
2023-02-06T14:22:45.866Z,2.53
2023-02-06T14:25:22.778Z,2.56
2023-02-06T14:28:12.856Z,2.74
2023-02-06T14:31:02.187Z,2.75
2023-02-06T14:34:07.069Z,2.78
2023-02-06T14:36:43.388Z,2.67
2023-02-06T14:39:54.720Z,2.65
2023-02-06T14:42:33.305Z,2.55
2023-02-06T14:45:23.937Z,1.81
2023-02-06T14:47:52.394Z,2.83
2023-02-06T14:50:25.365Z,2.84
2023-02-06T14:52:56.385Z,2.78
2023-02-06T14:55:39.672Z,2.64
2023-02-06T14:58:18.533Z,2.56
2023-02-06T15:00:45.480Z,2.69
2023-02-06T15:03:19.072Z,2.84
2023-02-06T15:05:46.235Z,2.79
2023-02-06T15:08:19.321Z,2.71
2023-02-06T15:10:46.836Z,2.50
2023-02-06T15:13:24.499Z,2.60
2023-02-06T15:15:55.821Z,2.66
2023-02-06T15:18:22.753Z,2.55
2023-02-06T15:21:04.432Z,2.49
2023-02-06T15:23:55.351Z,2.62
2023-02-06T15:26:25.439Z,2.56
2023-02-06T15:29:04.183Z,2.58
2023-02-06T15:31:31.448Z,2.49
2023-02-06T15:34:00.182Z,2.46
2023-02-06T15:36:32.529Z,2.41
2023-02-06T15:39:00.795Z,2.38
2023-02-06T15:41:30.956Z,2.41
2023-02-06T15:44:02.967Z,2.37
2023-02-06T15:46:31.093Z,2.46
2023-02-06T15:48:58.341Z,2.35
2023-02-06T15:51:39.703Z,2.38
2023-02-06T15:54:27.522Z,2.21
2023-02-06T15:56:58.812Z,2.36
2023-02-06T15:59:26.815Z,2.43
2023-02-06T16:01:56.782Z,2.45
2023-02-06T16:04:33.152Z,2.22
2023-02-06T16:07:11.566Z,2.39
2023-02-06T16:09:51.942Z,2.42
2023-02-06T16:12:21.380Z,2.37
2023-02-06T16:15:02.520Z,2.40
2023-02-06T16:17:35.344Z,2.46
2023-02-06T16:20:23.970Z,2.37
2023-02-06T16:22:56.999Z,2.19
2023-02-06T16:25:28.882Z,2.37
2023-02-06T16:27:56.157Z,2.23
2023-02-06T16:30:33.144Z,2.27
2023-02-06T16:33:08.989Z,1.43
2023-02-06T16:35:35.401Z,2.25
2023-02-06T16:38:01.836Z,2.13
2023-02-06T16:40:28.318Z,2.11
2023-02-06T16:42:54.893Z,2.16
2023-02-06T16:45:26.299Z,2.17
2023-02-06T16:47:57.499Z,2.21
2023-02-06T16:50:25.253Z,2.15
2023-02-06T16:52:55.186Z,2.20
2023-02-06T16:55:24.175Z,1.92
2023-02-06T16:57:58.663Z,1.92
2023-02-06T17:00:30.994Z,2.00
2023-02-06T17:03:03.936Z,1.70
2023-02-06T17:05:31.494Z,1.94
2023-02-06T17:07:59.075Z,1.96
2023-02-06T17:10:26.420Z,1.93
2023-02-06T17:12:53.019Z,1.92
2023-02-06T17:15:19.720Z,1.91
2023-02-06T17:17:46.574Z,1.75
2023-02-06T17:20:38.129Z,1.77
2023-02-06T17:23:05.551Z,1.67
2023-02-06T17:25:32.298Z,1.75
2023-02-06T17:27:59.337Z,1.76
2023-02-06T17:30:26.577Z,1.79
2023-02-06T17:32:53.384Z,1.74
2023-02-06T17:35:19.910Z,1.69
2023-02-06T17:37:46.694Z,1.44
2023-02-06T17:40:20.835Z,1.78
2023-02-06T17:42:48.207Z,1.68
2023-02-06T17:45:15.990Z,1.75
2023-02-06T17:47:43.650Z,1.77
2023-02-06T17:50:14.284Z,1.72
2023-02-06T17:52:40.705Z,1.74
2023-02-06T17:55:07.922Z,1.77
2023-02-06T17:57:36.598Z,1.69
2023-02-06T18:00:12.366Z,1.84
2023-02-06T18:02:38.914Z,1.77
2023-02-06T18:05:06.414Z,1.78
2023-02-06T18:07:33.015Z,1.70
2023-02-06T18:09:59.490Z,1.84
2023-02-06T18:12:26.021Z,1.82
2023-02-06T18:14:52.614Z,1.89
2023-02-06T18:17:19.126Z,1.74
2023-02-06T18:19:46.612Z,1.72
2023-02-06T18:22:17.332Z,1.66
2023-02-06T18:24:44.616Z,1.54
2023-02-06T18:27:18.460Z,1.50
2023-02-06T18:29:50.018Z,1.69
2023-02-06T18:32:18.239Z,1.62
2023-02-06T18:34:44.760Z,1.63
2023-02-06T18:37:11.294Z,1.57
2023-02-06T18:39:37.863Z,1.54
2023-02-06T18:42:23.421Z,1.45
2023-02-06T18:44:50.094Z,1.29
2023-02-06T18:47:17.569Z,1.19
2023-02-06T18:49:44.041Z,1.17
2023-02-06T18:52:10.539Z,1.27
2023-02-06T18:54:38.996Z,1.02
2023-02-06T18:57:06.020Z,1.09
2023-02-06T18:59:32.586Z,1.23
2023-02-06T19:01:59.122Z,1.13
2023-02-06T19:04:25.790Z,1.17
2023-02-06T19:06:52.213Z,1.24
2023-02-06T19:09:28.456Z,1.29
2023-02-06T19:11:54.963Z,1.34
2023-02-06T19:14:25.266Z,1.32
2023-02-06T19:16:52.966Z,1.29
2023-02-06T19:19:19.476Z,1.33
2023-02-06T19:21:46.107Z,1.31
2023-02-06T19:24:15.079Z,1.26
2023-02-06T19:26:42.268Z,1.40
2023-02-06T19:29:09.447Z,1.42
2023-02-06T19:31:39.221Z,1.21
2023-02-06T19:34:06.570Z,1.22
2023-02-06T19:36:34.972Z,1.29
2023-02-06T19:39:04.971Z,1.24
2023-02-06T19:41:33.581Z,1.31
2023-02-06T19:44:09.743Z,1.43
2023-02-06T19:46:36.347Z,1.24
2023-02-06T19:49:05.631Z,1.33
2023-02-06T19:51:38.444Z,1.29
2023-02-06T19:54:05.963Z,1.21
2023-02-06T19:56:39.307Z,1.13
2023-02-06T19:59:09.944Z,1.26
2023-02-06T20:01:36.480Z,1.24
2023-02-06T20:04:03.614Z,1.26
2023-02-06T20:06:35.577Z,1.08
2023-02-06T20:09:05.055Z,1.22
2023-02-06T20:11:32.970Z,1.06
2023-02-06T20:13:59.628Z,1.07
2023-02-06T20:16:30.375Z,1.08
2023-02-06T20:18:58.521Z,1.00
2023-02-06T20:21:32.396Z,1.03
2023-02-06T20:24:02.977Z,0.98
2023-02-06T20:26:34.595Z,0.88
2023-02-06T20:29:03.070Z,0.85
2023-02-06T20:31:30.137Z,0.89
2023-02-06T20:33:56.744Z,0.94
2023-02-06T20:36:26.348Z,0.84
2023-02-06T20:38:57.964Z,0.89
2023-02-06T20:41:31.140Z,0.64
2023-02-06T20:44:00.109Z,0.87
2023-02-06T20:46:29.726Z,0.86
2023-02-06T20:48:58.435Z,0.84
2023-02-06T20:51:25.151Z,0.99
2023-02-06T20:53:51.925Z,1.04
2023-02-06T20:56:19.400Z,0.91
2023-02-06T20:58:47.295Z,0.83
2023-02-06T21:01:17.610Z,0.88
2023-02-06T21:03:46.150Z,0.86
2023-02-06T21:06:13.990Z,0.63
2023-02-06T21:08:41.425Z,0.61
2023-02-06T21:11:08.075Z,0.63
2023-02-06T21:13:35.058Z,0.59
2023-02-06T21:16:01.919Z,0.53
2023-02-06T21:18:31.335Z,0.32
2023-02-06T21:21:07.141Z,0.54
2023-02-06T21:23:33.866Z,0.59
2023-02-06T21:26:03.108Z,0.41
2023-02-06T21:28:29.528Z,0.44
2023-02-06T21:31:02.042Z,0.48
2023-02-06T21:33:28.717Z,0.36
2023-02-06T21:35:55.611Z,0.19
2023-02-06T21:38:22.241Z,0.25
2023-02-06T21:40:49.331Z,0.35
2023-02-06T21:43:16.088Z,0.33
2023-02-06T21:45:45.339Z,0.43
2023-02-06T21:48:11.883Z,0.19
2023-02-06T21:50:39.809Z,0.23
2023-02-06T21:53:08.031Z,0.07
2023-02-06T21:55:34.603Z,0.10
2023-02-06T21:58:01.379Z,0.17
2023-02-06T22:00:28.789Z,0.13
2023-02-06T22:02:55.313Z,0.09
2023-02-06T22:05:21.843Z,0.08
2023-02-06T22:07:48.287Z,0.21
2023-02-06T22:10:14.813Z,0.19
2023-02-06T22:12:41.257Z,0.15
2023-02-06T22:15:08.333Z,0.07
2023-02-06T22:17:35.490Z,0.10
2023-02-06T22:20:02.139Z,0.14
2023-02-06T22:22:28.812Z,0.08
2023-02-06T22:24:59.670Z,-0.25
2023-02-06T22:27:26.088Z,0.10
2023-02-06T22:29:55.527Z,0.07
2023-02-06T22:32:21.990Z,0.03
2023-02-06T22:34:50.846Z,-0.12
2023-02-06T22:37:17.756Z,0.00
2023-02-06T22:39:44.297Z,-0.14
2023-02-06T22:42:10.733Z,-0.18
2023-02-06T22:44:37.636Z,-0.21
2023-02-06T22:47:04.177Z,0.02
2023-02-06T22:49:30.593Z,0.03
2023-02-06T22:52:01.215Z,-0.01
2023-02-06T22:54:27.704Z,-0.07
2023-02-06T22:56:54.733Z,0.04
2023-02-06T22:59:23.546Z,0.06
2023-02-06T23:01:53.085Z,0.02
2023-02-06T23:04:22.468Z,0.13
2023-02-06T23:06:49.745Z,0.03
2023-02-06T23:09:19.024Z,0.10
2023-02-06T23:11:46.299Z,-0.14
2023-02-06T23:14:14.679Z,-0.02
2023-02-06T23:16:44.375Z,-0.03
2023-02-06T23:19:13.814Z,0.09
2023-02-06T23:21:43.372Z,0.16
2023-02-06T23:24:10.439Z,0.13
2023-02-06T23:26:37.863Z,0.18
2023-02-06T23:29:06.893Z,-0.02
2023-02-06T23:31:35.834Z,0.18
2023-02-06T23:34:02.998Z,0.14
2023-02-06T23:36:29.615Z,0.09
2023-02-06T23:38:56.077Z,0.07
2023-02-06T23:41:25.939Z,-0.14
2023-02-06T23:43:54.847Z,-0.17
2023-02-06T23:46:22.192Z,-0.16
2023-02-06T23:48:49.660Z,-0.16
2023-02-06T23:51:17.249Z,-0.21
2023-02-06T23:53:43.773Z,-0.22
2023-02-06T23:56:12.452Z,-0.44
2023-02-06T23:58:40.423Z,-0.41
